Blackwater, Queensland

1:16 AM AEST on October 03, 2014 (GMT +1000)
IQUEENSL259 | Change Station
CLOSE
Current Station
Personal Weather Station
Location: Blackwater, QUEENSLAND
Elevation: 617 ft
Nearby Weather Stations

Elev 617 ft 23.60 °S, 148.88 °E | Updated 6 minutes ago

Clear
Clear
67.8 °F
Feels Like 67.8 °F
N
9.0
Wind Variable Wind from ESE
Gusts 14.0 mph

Today
High -- | Low -- °F
--% Chance of Precip.
Yesterday
High -- | Low -- °F
Precip. -- in
5:43 AM 6:04 PM
First Quarter, 59% visible
Pressure 30.04 in
Visibility 6.2 miles
Clouds
Dew Point 62 °F
Humidity 82%
Rainfall 0.00 in
Snow Depth Not available.
UV Not available.
Pollen Not available.
Air Quality Not available.
Flu Activity Not available.
METAR YEML 021500Z AUTO 05007KT 9999 // NCD 19/16 Q1017

More Conditions Fewer Conditions

Pressure 30.04 in
Visibility 6.2 miles
Clouds
Dew Point 62 °F
Humidity 82%
Rainfall 0.00 in
Snow Depth Not available.
UV Not available.
Pollen Not available.
Air Quality Not available.
Flu Activity Not available.
METAR YEML 021500Z AUTO 05007KT 9999 // NCD 19/16 Q1017

More Conditions Fewer Conditions

10-Day Weather Forecast

Almanac

Astronomy

Oct. 03, 2014 Rise Set
Actual Time 5:43 AM AEST 6:04 PM AEST
Civil Twilight 5:20 AM AEST 6:26 PM AEST
Nautical Twilight 4:54 AM AEST 6:53 PM AEST
Astronomical Twilight 4:27 AM AEST 7:20 PM AEST
Moon 12:41 PM AEST (10/3) 1:12 AM AEST (10/3)
Length of Visible Light 13h 06m
Length of Day
12h 20m
Tomorrow will be 1m 22s longer.
First Quarter, 59% of the Moon is Illuminated
Oct 2
First Quarter
Oct 8
Full
Oct 15
Last Quarter
Oct 23
New
Oct 30
First Quarter

Yesterday's Extremes

Country Highs Country Lows

Community

WunderPhotos

Upload Photos

1,758,255 photos uploaded!

WunderBlogs® & News

By Dr. Jeff Masters
Director of Meteorology, Weather Underground
By Kari Strenfel
Meteorologist, Weather Underground
By Christopher C. Burt
Weather Historian, Weather Underground
October 2, 2014
October 2, 2014
October 2, 2014

Nearby

Snow Depth

Not available.

Earthquake Activity

City Distance Mag. Time & Date
No recent earthquake activity has been reported nearby.
Minimum magnitude displayed is 2.5.

Coastal Water Temperatures

Place Temperature
No Stations Reporting

Nearby Weather Stations